Time;durP1;ratioP1;P1;durP2;ratioP2;P2;SDS_P1;SDS_P2;PMS_P1;PMS_P2;Temp;Humidity;BMP_temperature;BMP_pressure;BME280_temperature;BME280_humidity;BME280_pressure;Samples;Min_cycle;Max_cycle;Signal;HPM_P1;HPM_P2
2022/03/07 00:01:07;;;;;;;26.98;25.10;;;;;;;;;;4996518;28;20191;-85
2022/03/07 00:03:35;;;;;;;26.98;25.25;;;;;;;;;;4996754;28;20199;-85
2022/03/07 00:06:02;;;;;;;26.60;25.00;;;;;;;;;;4996053;28;20696;-85
2022/03/07 00:08:29;;;;;;;25.73;24.10;;;;;;;;;;4996094;28;20191;-84
2022/03/07 00:10:58;;;;;;;27.10;25.50;;;;;;;;;;4996164;28;20633;-85
2022/03/07 00:13:26;;;;;;;27.70;26.00;;;;;;;;;;4996046;28;20219;-85
2022/03/07 00:15:53;;;;;;;26.83;25.33;;;;;;;;;;4995976;28;20187;-85
2022/03/07 00:18:20;;;;;;;28.63;26.40;;;;;;;;;;4995775;28;20243;-86
2022/03/07 00:20:48;;;;;;;26.95;25.27;;;;;;;;;;4996376;28;20597;-85
2022/03/07 00:23:15;;;;;;;27.20;25.38;;;;;;;;;;4996232;28;20210;-85
2022/03/07 00:25:43;;;;;;;29.38;27.38;;;;;;;;;;4995494;28;20707;-85
2022/03/07 00:28:11;;;;;;;27.90;26.10;;;;;;;;;;4995822;28;20633;-85
2022/03/07 00:30:39;;;;;;;27.40;25.70;;;;;;;;;;4995908;28;20199;-85
2022/03/07 00:33:06;;;;;;;27.33;25.73;;;;;;;;;;4995865;28;20215;-85
2022/03/07 00:35:34;;;;;;;27.95;26.10;;;;;;;;;;4996115;28;20202;-85
2022/03/07 00:38:01;;;;;;;26.85;25.35;;;;;;;;;;4995489;28;20198;-85
2022/03/07 00:40:28;;;;;;;28.45;26.55;;;;;;;;;;4996153;28;20210;-85
2022/03/07 00:42:56;;;;;;;28.70;26.70;;;;;;;;;;4996357;28;20194;-85
2022/03/07 00:45:24;;;;;;;29.58;27.60;;;;;;;;;;4995354;28;20245;-85
2022/03/07 00:47:52;;;;;;;30.05;28.10;;;;;;;;;;4995363;28;20199;-85
2022/03/07 00:50:20;;;;;;;31.05;28.55;;;;;;;;;;4995619;28;20663;-85
2022/03/07 00:52:47;;;;;;;34.47;32.03;;;;;;;;;;4995353;28;20223;-85
2022/03/07 00:55:14;;;;;;;30.50;28.50;;;;;;;;;;4995049;28;20271;-85
2022/03/07 00:57:42;;;;;;;31.17;29.17;;;;;;;;;;4995106;28;20630;-85
2022/03/07 01:00:10;;;;;;;29.77;27.67;;;;;;;;;;4995346;28;20198;-85
2022/03/07 01:02:39;;;;;;;31.98;29.85;;;;;;;;;;4995043;28;20198;-85
2022/03/07 01:05:07;;;;;;;29.80;27.83;;;;;;;;;;4995356;28;20623;-84
2022/03/07 01:07:35;;;;;;;33.05;30.65;;;;;;;;;;4995481;28;20641;-86
2022/03/07 01:10:02;;;;;;;31.30;29.05;;;;;;;;;;4995364;28;20230;-85
2022/03/07 01:12:29;;;;;;;31.05;29.00;;;;;;;;;;4995151;28;20704;-85
2022/03/07 01:14:57;;;;;;;31.88;29.67;;;;;;;;;;4995094;28;20198;-86
2022/03/07 01:17:24;;;;;;;31.77;29.55;;;;;;;;;;4994990;28;20238;-85
2022/03/07 01:19:53;;;;;;;33.67;31.17;;;;;;;;;;4978243;28;20250;-85
2022/03/07 01:22:20;;;;;;;31.92;29.33;;;;;;;;;;4994827;28;20564;-85
2022/03/07 01:24:48;;;;;;;31.85;29.65;;;;;;;;;;4994835;28;20617;-85
2022/03/07 01:27:15;;;;;;;32.95;30.65;;;;;;;;;;4994533;28;20198;-85
2022/03/07 01:29:42;;;;;;;33.75;31.42;;;;;;;;;;4994797;28;20626;-85
2022/03/07 01:32:10;;;;;;;31.95;29.85;;;;;;;;;;4994857;28;20214;-85
2022/03/07 01:34:37;;;;;;;32.55;30.45;;;;;;;;;;4994597;28;20191;-85
2022/03/07 01:37:06;;;;;;;33.35;30.98;;;;;;;;;;4994591;28;20191;-85
2022/03/07 01:39:33;;;;;;;31.40;29.05;;;;;;;;;;4994677;28;20201;-85
2022/03/07 01:42:01;;;;;;;32.33;30.23;;;;;;;;;;4994826;28;20187;-85
2022/03/07 01:44:28;;;;;;;32.47;30.38;;;;;;;;;;4994434;28;20195;-85
2022/03/07 01:46:56;;;;;;;32.92;30.63;;;;;;;;;;4994529;28;20191;-85
2022/03/07 01:49:27;;;;;;;33.60;31.20;;;;;;;;;;4994670;28;20222;-85
2022/03/07 01:51:54;;;;;;;33.85;31.50;;;;;;;;;;4994290;28;20191;-85
2022/03/07 01:54:23;;;;;;;32.10;29.90;;;;;;;;;;4994531;28;20194;-85
2022/03/07 01:56:51;;;;;;;32.85;30.45;;;;;;;;;;4994486;28;20226;-85
2022/03/07 01:59:20;;;;;;;33.10;30.27;;;;;;;;;;4994365;28;20230;-85
2022/03/07 02:01:47;;;;;;;32.17;29.98;;;;;;;;;;4994357;28;20202;-84
2022/03/07 02:04:15;;;;;;;30.30;28.30;;;;;;;;;;4977571;28;20661;-85
2022/03/07 02:06:42;;;;;;;34.42;31.63;;;;;;;;;;4994385;28;20214;-85
2022/03/07 02:09:11;;;;;;;33.13;30.92;;;;;;;;;;4995483;28;20191;-85
2022/03/07 02:11:40;;;;;;;32.15;30.05;;;;;;;;;;4998217;28;20190;-84
2022/03/07 02:14:17;;;;;;;32.50;30.10;;;;;;;;;;4997917;28;20642;-85
2022/03/07 02:16:45;;;;;;;33.20;31.00;;;;;;;;;;4998148;28;20201;-84
2022/03/07 02:19:12;;;;;;;31.75;29.58;;;;;;;;;;4998512;28;20279;-85
2022/03/07 02:21:43;;;;;;;33.35;30.83;;;;;;;;;;4998351;28;20191;-85
2022/03/07 02:24:12;;;;;;;33.35;30.70;;;;;;;;;;4998464;28;20199;-85
2022/03/07 02:26:40;;;;;;;32.58;30.25;;;;;;;;;;4999218;28;20200;-85
2022/03/07 02:29:09;;;;;;;33.53;30.73;;;;;;;;;;4999347;28;20217;-83
2022/03/07 02:31:36;;;;;;;31.85;29.52;;;;;;;;;;4982264;28;20221;-85
2022/03/07 02:34:04;;;;;;;31.27;29.08;;;;;;;;;;5001749;28;20254;-84
2022/03/07 02:36:32;;;;;;;31.92;29.60;;;;;;;;;;4998990;28;20187;-85
2022/03/07 02:38:59;;;;;;;31.73;29.63;;;;;;;;;;4998273;28;20215;-86
2022/03/07 02:41:28;;;;;;;32.63;30.13;;;;;;;;;;4998065;28;20604;-85
2022/03/07 02:43:55;;;;;;;31.83;29.58;;;;;;;;;;4998240;28;20211;-85
2022/03/07 02:46:23;;;;;;;31.77;29.58;;;;;;;;;;4981716;28;20194;-85
2022/03/07 02:48:50;;;;;;;31.00;29.00;;;;;;;;;;4998414;28;20223;-85
2022/03/07 02:51:17;;;;;;;30.65;28.60;;;;;;;;;;4998153;28;20195;-84
2022/03/07 02:53:45;;;;;;;30.70;28.65;;;;;;;;;;4997814;28;20226;-85
2022/03/07 02:56:12;;;;;;;30.20;28.08;;;;;;;;;;4998072;28;20198;-84
2022/03/07 02:58:41;;;;;;;31.73;29.13;;;;;;;;;;4997683;28;20229;-85
2022/03/07 03:01:08;;;;;;;31.58;29.42;;;;;;;;;;4997534;28;20191;-84
2022/03/07 03:03:36;;;;;;;30.05;28.10;;;;;;;;;;4997515;28;20199;-85
2022/03/07 03:06:04;;;;;;;30.83;28.92;;;;;;;;;;4997033;28;20290;-85
2022/03/07 03:08:31;;;;;;;30.33;28.25;;;;;;;;;;4997559;28;20198;-85
2022/03/07 03:10:58;;;;;;;31.10;28.75;;;;;;;;;;4997555;28;20195;-84
2022/03/07 03:13:26;;;;;;;30.10;28.00;;;;;;;;;;4997206;28;20227;-85
2022/03/07 03:15:55;;;;;;;32.15;29.95;;;;;;;;;;4997207;28;20660;-84
2022/03/07 03:18:23;;;;;;;29.45;27.45;;;;;;;;;;4996912;28;20651;-85
2022/03/07 03:20:51;;;;;;;29.00;27.10;;;;;;;;;;4997586;28;20596;-84
2022/03/07 03:23:19;;;;;;;30.38;28.20;;;;;;;;;;4997125;28;20194;-85
2022/03/07 03:25:46;;;;;;;29.88;27.67;;;;;;;;;;4996869;28;20194;-86
2022/03/07 03:28:14;;;;;;;30.10;28.02;;;;;;;;;;4997219;28;20257;-85
2022/03/07 03:30:41;;;;;;;29.13;27.20;;;;;;;;;;4996849;28;20198;-85
2022/03/07 03:33:10;;;;;;;29.13;27.13;;;;;;;;;;4996799;28;20230;-85
2022/03/07 03:35:38;;;;;;;28.58;26.55;;;;;;;;;;4997104;28;20231;-85
2022/03/07 03:38:05;;;;;;;28.80;26.58;;;;;;;;;;4996849;28;20198;-85
2022/03/07 03:40:33;;;;;;;28.42;26.55;;;;;;;;;;4979769;28;20246;-85
2022/03/07 03:43:00;;;;;;;29.33;27.30;;;;;;;;;;4996928;28;20190;-85
2022/03/07 03:45:28;;;;;;;28.52;26.67;;;;;;;;;;4996857;28;20195;-85
2022/03/07 03:47:55;;;;;;;28.42;26.50;;;;;;;;;;4996654;28;20202;-85
2022/03/07 03:50:24;;;;;;;28.50;26.55;;;;;;;;;;4996582;28;20195;-85
2022/03/07 03:52:51;;;;;;;29.05;27.02;;;;;;;;;;4996276;28;20198;-85
2022/03/07 03:55:19;;;;;;;30.20;28.20;;;;;;;;;;4996512;28;20227;-85
2022/03/07 03:57:46;;;;;;;31.45;29.25;;;;;;;;;;4996472;28;20229;-85
2022/03/07 04:00:16;;;;;;;28.23;26.42;;;;;;;;;;4996689;28;20191;-85
2022/03/07 04:02:44;;;;;;;27.23;25.52;;;;;;;;;;4996333;28;20187;-85
2022/03/07 04:05:11;;;;;;;27.80;25.75;;;;;;;;;;4996161;28;20293;-85
2022/03/07 04:07:40;;;;;;;27.83;26.02;;;;;;;;;;4996608;28;20191;-85
2022/03/07 04:10:08;;;;;;;29.40;27.40;;;;;;;;;;4996354;28;20596;-83
2022/03/07 04:12:36;;;;;;;29.98;27.98;;;;;;;;;;4996191;28;20195;-85
2022/03/07 04:15:04;;;;;;;28.80;26.90;;;;;;;;;;4996480;28;20218;-86
2022/03/07 04:17:31;;;;;;;29.17;27.17;;;;;;;;;;4995988;28;20230;-85
2022/03/07 04:19:59;;;;;;;28.60;26.60;;;;;;;;;;4996411;28;20217;-85
2022/03/07 04:22:26;;;;;;;29.80;27.67;;;;;;;;;;4995908;28;20186;-85
2022/03/07 04:24:55;;;;;;;29.67;27.67;;;;;;;;;;4996119;28;20597;-85
2022/03/07 04:27:22;;;;;;;28.67;26.73;;;;;;;;;;4996134;28;20287;-85
2022/03/07 04:29:49;;;;;;;29.25;27.13;;;;;;;;;;4995660;28;20657;-85
2022/03/07 04:32:17;;;;;;;29.58;27.38;;;;;;;;;;4995502;28;20187;-85
2022/03/07 04:34:45;;;;;;;30.67;28.45;;;;;;;;;;4995285;28;20724;-85
2022/03/07 04:37:12;;;;;;;28.55;26.65;;;;;;;;;;4995353;28;20198;-85
2022/03/07 04:39:39;;;;;;;28.75;26.65;;;;;;;;;;4995571;28;20225;-85
2022/03/07 04:42:08;;;;;;;28.02;26.20;;;;;;;;;;4995817;28;20195;-85
2022/03/07 04:44:36;;;;;;;28.15;25.77;;;;;;;;;;4995589;28;20187;-85
2022/03/07 04:47:03;;;;;;;29.13;26.83;;;;;;;;;;4995613;28;20294;-85
2022/03/07 04:49:30;;;;;;;28.77;26.77;;;;;;;;;;4995322;28;20202;-85
2022/03/07 04:51:58;;;;;;;28.65;26.75;;;;;;;;;;4995821;28;20230;-85
2022/03/07 04:54:25;;;;;;;27.65;25.85;;;;;;;;;;4995805;28;20233;-86
2022/03/07 04:56:54;;;;;;;28.05;26.20;;;;;;;;;;4995160;28;20187;-85
2022/03/07 04:59:23;;;;;;;27.40;25.10;;;;;;;;;;4995856;28;20250;-85
2022/03/07 05:01:50;;;;;;;26.50;24.80;;;;;;;;;;4996079;28;20195;-85
2022/03/07 05:04:18;;;;;;;26.85;25.15;;;;;;;;;;4995876;28;20206;-85
2022/03/07 05:06:45;;;;;;;26.23;24.52;;;;;;;;;;4994837;28;20199;-86
2022/03/07 05:09:12;;;;;;;27.73;25.83;;;;;;;;;;4995232;28;20188;-84
2022/03/07 05:11:39;;;;;;;29.23;27.20;;;;;;;;;;4995162;28;20245;-86
2022/03/07 05:14:07;;;;;;;28.50;26.38;;;;;;;;;;4994833;28;20230;-85
2022/03/07 05:16:35;;;;;;;27.40;25.42;;;;;;;;;;4994722;28;20664;-86
2022/03/07 05:19:03;;;;;;;27.70;25.70;;;;;;;;;;4994766;28;20274;-85
2022/03/07 05:21:30;;;;;;;27.17;25.25;;;;;;;;;;4995102;28;20191;-85
2022/03/07 05:23:57;;;;;;;27.80;25.90;;;;;;;;;;4994791;28;20190;-85
2022/03/07 05:26:25;;;;;;;28.05;26.13;;;;;;;;;;4994432;28;20195;-86
2022/03/07 05:28:52;;;;;;;26.38;24.58;;;;;;;;;;4995164;28;20269;-85
2022/03/07 05:31:19;;;;;;;27.48;25.67;;;;;;;;;;4994686;28;20195;-85
2022/03/07 05:33:48;;;;;;;27.50;25.60;;;;;;;;;;4994622;28;20229;-85
2022/03/07 05:36:16;;;;;;;27.48;25.67;;;;;;;;;;4995007;28;20560;-85
2022/03/07 05:38:43;;;;;;;30.55;28.25;;;;;;;;;;4994609;28;20195;-85
2022/03/07 05:41:11;;;;;;;28.30;26.40;;;;;;;;;;4994757;28;20191;-86
2022/03/07 05:43:38;;;;;;;28.85;26.95;;;;;;;;;;4993932;28;20241;-84
2022/03/07 05:46:07;;;;;;;28.25;26.05;;;;;;;;;;4994787;28;20203;-85
2022/03/07 05:48:34;;;;;;;29.25;27.15;;;;;;;;;;4978042;28;20194;-85
2022/03/07 05:51:03;;;;;;;29.33;27.42;;;;;;;;;;4994667;28;20191;-85
2022/03/07 05:53:30;;;;;;;28.08;26.10;;;;;;;;;;4994261;28;20191;-81
2022/03/07 05:55:57;;;;;;;30.25;28.20;;;;;;;;;;4993491;28;20202;-80
2022/03/07 05:58:25;;;;;;;29.00;27.10;;;;;;;;;;4993409;28;20578;-81
2022/03/07 06:00:52;;;;;;;30.52;28.30;;;;;;;;;;4994019;28;20289;-80
2022/03/07 06:03:19;;;;;;;30.92;28.73;;;;;;;;;;4993645;28;20201;-81
2022/03/07 06:05:47;;;;;;;30.60;28.60;;;;;;;;;;4993862;28;20215;-81
2022/03/07 06:08:17;;;;;;;29.27;27.33;;;;;;;;;;4993505;28;20582;-81
2022/03/07 06:10:44;;;;;;;29.92;27.83;;;;;;;;;;4993417;28;20191;-80
2022/03/07 06:13:12;;;;;;;28.50;26.45;;;;;;;;;;4993247;28;20230;-81
2022/03/07 06:15:43;;;;;;;31.00;28.83;;;;;;;;;;4993474;28;20230;-81
2022/03/07 06:18:11;;;;;;;29.73;27.75;;;;;;;;;;4993404;28;20628;-81
2022/03/07 06:20:38;;;;;;;29.27;27.20;;;;;;;;;;4993166;28;20187;-80
2022/03/07 06:23:06;;;;;;;29.80;27.42;;;;;;;;;;4993506;28;20546;-81
2022/03/07 06:25:35;;;;;;;29.77;27.33;;;;;;;;;;4993146;28;20201;-80
2022/03/07 06:28:02;;;;;;;27.40;25.50;;;;;;;;;;4993330;28;20241;-81
2022/03/07 06:30:30;;;;;;;28.25;26.40;;;;;;;;;;4993260;28;20203;-80
2022/03/07 06:32:58;;;;;;;29.80;27.65;;;;;;;;;;4993398;28;20206;-80
2022/03/07 06:35:25;;;;;;;28.63;26.73;;;;;;;;;;4993167;28;20219;-81
2022/03/07 06:37:54;;;;;;;29.20;27.23;;;;;;;;;;4992908;28;20213;-81
2022/03/07 06:40:22;;;;;;;30.33;28.05;;;;;;;;;;4993367;28;20198;-81
2022/03/07 06:42:51;;;;;;;30.88;28.58;;;;;;;;;;4992863;28;20187;-81
2022/03/07 06:45:19;;;;;;;30.80;28.55;;;;;;;;;;4993244;28;20187;-81
2022/03/07 06:47:47;;;;;;;29.20;27.40;;;;;;;;;;4993148;28;20213;-81
2022/03/07 06:50:15;;;;;;;28.42;26.60;;;;;;;;;;4993044;28;20253;-81
2022/03/07 06:52:42;;;;;;;29.95;27.75;;;;;;;;;;4993156;28;20192;-81
2022/03/07 06:55:10;;;;;;;28.95;27.10;;;;;;;;;;4994036;28;20215;-80
2022/03/07 06:57:37;;;;;;;28.75;26.60;;;;;;;;;;4996493;28;20227;-80
2022/03/07 07:00:08;;;;;;;27.27;25.48;;;;;;;;;;4996460;28;20194;-81
2022/03/07 07:02:36;;;;;;;29.13;27.35;;;;;;;;;;4996894;28;20195;-81
2022/03/07 07:05:03;;;;;;;28.50;26.55;;;;;;;;;;4996447;28;20583;-81
2022/03/07 07:07:31;;;;;;;29.20;26.95;;;;;;;;;;4996695;28;20194;-81
2022/03/07 07:09:58;;;;;;;28.90;27.00;;;;;;;;;;4996501;28;20265;-81
2022/03/07 07:12:26;;;;;;;32.97;30.33;;;;;;;;;;4978851;28;20191;-81
2022/03/07 07:14:53;;;;;;;30.33;28.15;;;;;;;;;;4996411;28;20263;-81
2022/03/07 07:17:22;;;;;;;31.30;28.65;;;;;;;;;;4996160;28;20235;-81
2022/03/07 07:19:49;;;;;;;36.58;32.97;;;;;;;;;;4996070;28;20696;-80
2022/03/07 07:22:17;;;;;;;37.95;34.28;;;;;;;;;;4996323;28;20199;-80
2022/03/07 07:24:44;;;;;;;31.95;29.38;;;;;;;;;;4996110;28;20195;-81
2022/03/07 07:27:11;;;;;;;33.65;30.75;;;;;;;;;;4996320;28;20190;-80
2022/03/07 07:29:39;;;;;;;33.42;30.65;;;;;;;;;;4996092;28;20665;-80
2022/03/07 07:32:06;;;;;;;31.85;29.55;;;;;;;;;;4996580;28;20201;-80
2022/03/07 07:34:35;;;;;;;31.42;29.20;;;;;;;;;;4996287;28;20219;-81
2022/03/07 07:37:03;;;;;;;34.88;32.00;;;;;;;;;;4995963;28;20541;-81
2022/03/07 07:39:30;;;;;;;32.65;30.15;;;;;;;;;;4996168;28;20241;-81
2022/03/07 07:41:58;;;;;;;31.85;29.65;;;;;;;;;;4995845;28;20195;-81
2022/03/07 07:44:25;;;;;;;31.80;29.40;;;;;;;;;;4995587;28;20557;-81
2022/03/07 07:46:52;;;;;;;32.63;30.02;;;;;;;;;;4995736;28;20250;-81
2022/03/07 07:49:21;;;;;;;31.77;29.15;;;;;;;;;;4995499;28;20676;-81
2022/03/07 07:51:50;;;;;;;31.58;29.02;;;;;;;;;;4995445;28;20187;-80
2022/03/07 07:54:18;;;;;;;31.55;29.15;;;;;;;;;;4995828;28;20218;-81
2022/03/07 07:56:45;;;;;;;28.38;26.35;;;;;;;;;;4995456;28;20195;-80
2022/03/07 07:59:13;;;;;;;27.52;25.63;;;;;;;;;;4995751;28;20231;-80
2022/03/07 08:01:40;;;;;;;27.23;25.63;;;;;;;;;;4995800;28;20188;-80
2022/03/07 08:04:08;;;;;;;28.02;25.80;;;;;;;;;;4995597;28;20206;-81
2022/03/07 08:06:35;;;;;;;28.45;26.08;;;;;;;;;;4994694;28;20593;-81
2022/03/07 08:09:05;;;;;;;25.48;23.88;;;;;;;;;;4995338;28;20198;-81
2022/03/07 08:11:32;;;;;;;26.95;25.02;;;;;;;;;;4995689;28;20191;-81
2022/03/07 08:13:59;;;;;;;26.95;25.30;;;;;;;;;;4995349;28;20645;-80
2022/03/07 08:16:27;;;;;;;26.73;25.00;;;;;;;;;;4995423;28;20218;-81
2022/03/07 08:18:54;;;;;;;27.65;25.85;;;;;;;;;;4995120;28;20697;-81
2022/03/07 08:21:25;;;;;;;28.45;26.52;;;;;;;;;;4978134;28;20198;-81
2022/03/07 08:23:52;;;;;;;28.40;26.35;;;;;;;;;;4995398;28;20191;-80
2022/03/07 08:26:22;;;;;;;30.40;28.30;;;;;;;;;;4994917;28;20642;-80
2022/03/07 08:28:49;;;;;;;28.95;27.05;;;;;;;;;;4995260;28;20187;-80
2022/03/07 08:31:17;;;;;;;27.92;25.88;;;;;;;;;;4994967;28;20213;-81
2022/03/07 08:33:45;;;;;;;27.58;25.73;;;;;;;;;;4995208;28;20191;-81
2022/03/07 08:36:12;;;;;;;26.55;24.80;;;;;;;;;;4994791;28;20988;-81
2022/03/07 08:38:39;;;;;;;27.02;25.13;;;;;;;;;;4994977;28;20197;-81
2022/03/07 08:41:07;;;;;;;27.15;25.35;;;;;;;;;;4994720;28;20662;-81
2022/03/07 08:43:36;;;;;;;29.27;27.17;;;;;;;;;;4994625;28;20195;-81
2022/03/07 08:46:03;;;;;;;27.85;25.85;;;;;;;;;;4994929;28;20557;-81
2022/03/07 08:48:31;;;;;;;27.58;25.60;;;;;;;;;;4994814;28;20198;-81
2022/03/07 08:50:58;;;;;;;29.20;27.10;;;;;;;;;;4977379;28;20195;-82
2022/03/07 08:53:25;;;;;;;28.30;25.95;;;;;;;;;;4994517;28;20636;-81
2022/03/07 08:55:53;;;;;;;26.88;25.10;;;;;;;;;;4994617;28;20222;-79
2022/03/07 08:58:20;;;;;;;27.92;26.00;;;;;;;;;;4994431;28;20223;-81
2022/03/07 09:00:49;;;;;;;27.02;24.65;;;;;;;;;;4994309;28;20191;-80
2022/03/07 09:03:16;;;;;;;27.35;25.50;;;;;;;;;;4994684;28;20195;-81
2022/03/07 09:05:44;;;;;;;27.73;25.73;;;;;;;;;;4994208;28;20683;-81
2022/03/07 09:08:11;;;;;;;27.58;25.58;;;;;;;;;;4994019;28;20693;-81
2022/03/07 09:10:38;;;;;;;28.20;26.23;;;;;;;;;;4994625;28;20191;-80
2022/03/07 09:13:06;;;;;;;26.25;24.55;;;;;;;;;;4994474;28;20191;-81
2022/03/07 09:15:33;;;;;;;28.45;26.45;;;;;;;;;;4993900;28;20711;-81
2022/03/07 09:18:02;;;;;;;28.52;26.48;;;;;;;;;;4976608;28;20241;-81
2022/03/07 09:20:29;;;;;;;28.75;26.55;;;;;;;;;;4994365;28;20195;-80
2022/03/07 09:22:56;;;;;;;29.75;27.80;;;;;;;;;;4994293;28;20194;-80
2022/03/07 09:25:24;;;;;;;27.20;25.50;;;;;;;;;;4994323;28;20202;-80
2022/03/07 09:27:51;;;;;;;25.35;23.95;;;;;;;;;;4994078;28;20198;-81
2022/03/07 09:30:19;;;;;;;25.25;23.65;;;;;;;;;;4993929;28;20202;-81
2022/03/07 09:32:46;;;;;;;27.20;25.20;;;;;;;;;;4994088;28;20243;-81
2022/03/07 09:35:15;;;;;;;27.85;26.05;;;;;;;;;;4994252;28;20225;-81
2022/03/07 09:37:42;;;;;;;26.98;25.38;;;;;;;;;;4993730;28;20199;-81
2022/03/07 09:40:11;;;;;;;24.60;23.10;;;;;;;;;;4993894;28;20271;-81
2022/03/07 09:42:38;;;;;;;25.02;23.35;;;;;;;;;;4993595;28;20199;-81
2022/03/07 09:45:09;;;;;;;23.90;22.40;;;;;;;;;;4994075;28;20191;-81
2022/03/07 09:47:37;;;;;;;23.52;22.13;;;;;;;;;;4993902;28;20218;-81
2022/03/07 09:50:04;;;;;;;25.58;23.92;;;;;;;;;;4993635;28;20194;-80
2022/03/07 09:52:33;;;;;;;22.67;21.42;;;;;;;;;;4976328;28;20203;-81
2022/03/07 09:55:01;;;;;;;24.17;22.67;;;;;;;;;;4993791;28;20222;-80
2022/03/07 09:57:29;;;;;;;24.77;23.25;;;;;;;;;;4993754;28;20310;-80
2022/03/07 09:59:57;;;;;;;25.23;23.50;;;;;;;;;;4993889;28;20297;-80
2022/03/07 10:02:25;;;;;;;25.85;24.15;;;;;;;;;;4994201;28;20199;-81
2022/03/07 10:04:53;;;;;;;23.88;22.42;;;;;;;;;;4994179;28;20202;-80
2022/03/07 10:07:20;;;;;;;24.92;23.33;;;;;;;;;;4993842;28;20261;-81
2022/03/07 10:09:49;;;;;;;25.13;23.63;;;;;;;;;;4993314;28;20198;-80
2022/03/07 10:12:16;;;;;;;24.40;22.85;;;;;;;;;;4993724;28;20282;-80
2022/03/07 10:14:45;;;;;;;24.50;22.65;;;;;;;;;;4993649;28;20186;-81
2022/03/07 10:17:23;;;;;;;25.35;23.65;;;;;;;;;;4993055;28;20235;-80
2022/03/07 10:19:51;;;;;;;25.15;23.63;;;;;;;;;;4993520;28;20190;-80
2022/03/07 10:22:21;;;;;;;24.95;23.38;;;;;;;;;;4993316;28;20191;-80
2022/03/07 10:24:58;;;;;;;24.45;22.95;;;;;;;;;;4993552;28;20215;-81
2022/03/07 10:27:26;;;;;;;23.88;22.48;;;;;;;;;;4993137;28;20186;-81
2022/03/07 10:29:54;;;;;;;24.75;23.25;;;;;;;;;;4993575;28;20720;-80
2022/03/07 10:32:21;;;;;;;25.17;23.38;;;;;;;;;;4997438;28;20228;-80
2022/03/07 10:34:49;;;;;;;24.70;23.20;;;;;;;;;;4997171;28;20198;-80
2022/03/07 10:37:17;;;;;;;24.48;22.88;;;;;;;;;;4997449;28;20202;-80
2022/03/07 10:39:48;;;;;;;24.95;23.35;;;;;;;;;;4980146;28;20190;-81
2022/03/07 10:42:20;;;;;;;25.00;23.42;;;;;;;;;;4997233;28;20649;-80
2022/03/07 10:44:48;;;;;;;24.50;23.02;;;;;;;;;;4997056;28;20286;-80
2022/03/07 10:47:16;;;;;;;24.98;23.52;;;;;;;;;;4997271;28;20297;-81
2022/03/07 10:49:51;;;;;;;26.15;24.45;;;;;;;;;;4997305;28;20191;-80
2022/03/07 10:52:19;;;;;;;26.50;24.70;;;;;;;;;;4997487;28;20190;-80
2022/03/07 10:54:49;;;;;;;25.13;23.42;;;;;;;;;;4997215;28;20202;-81
2022/03/07 10:57:17;;;;;;;24.85;23.15;;;;;;;;;;4996741;28;20315;-80
2022/03/07 10:59:46;;;;;;;25.70;23.77;;;;;;;;;;4997309;28;20515;-80
2022/03/07 11:02:16;;;;;;;24.33;22.70;;;;;;;;;;4997388;28;20191;-81
2022/03/07 11:04:44;;;;;;;25.55;23.75;;;;;;;;;;4996678;28;20198;-80
2022/03/07 11:07:13;;;;;;;26.02;24.42;;;;;;;;;;4997117;28;20202;-80
2022/03/07 11:09:41;;;;;;;26.65;24.95;;;;;;;;;;4996585;28;20202;-81
2022/03/07 11:12:12;;;;;;;25.55;23.85;;;;;;;;;;4996808;28;20191;-81
2022/03/07 11:14:41;;;;;;;22.52;21.23;;;;;;;;;;4978833;28;20203;-80
2022/03/07 11:17:13;;;;;;;26.92;25.23;;;;;;;;;;4996234;28;20640;-80
2022/03/07 11:19:42;;;;;;;26.95;25.25;;;;;;;;;;4996801;28;20187;-80
2022/03/07 11:22:09;;;;;;;25.77;24.17;;;;;;;;;;4996578;28;20238;-80
2022/03/07 11:24:36;;;;;;;25.17;23.45;;;;;;;;;;4996499;28;21102;-81
2022/03/07 11:27:04;;;;;;;25.10;23.50;;;;;;;;;;4996421;28;20202;-81
2022/03/07 11:29:36;;;;;;;26.17;24.58;;;;;;;;;;4996415;28;20278;-80
2022/03/07 11:32:05;;;;;;;27.67;25.88;;;;;;;;;;4996200;28;20195;-81
2022/03/07 11:34:34;;;;;;;27.15;25.45;;;;;;;;;;4995402;28;20203;-81
2022/03/07 11:37:02;;;;;;;27.23;25.20;;;;;;;;;;4996047;28;20686;-81
2022/03/07 11:39:31;;;;;;;26.73;24.83;;;;;;;;;;4996295;28;20191;-80
2022/03/07 11:42:08;;;;;;;25.67;24.08;;;;;;;;;;4994566;28;20203;-79
2022/03/07 11:44:35;;;;;;;26.27;24.50;;;;;;;;;;4996315;28;20534;-81
2022/03/07 11:47:09;;;;;;;26.38;24.70;;;;;;;;;;4996587;28;20671;-80
2022/03/07 11:49:38;;;;;;;26.85;24.85;;;;;;;;;;4996648;28;20222;-81
2022/03/07 11:52:06;;;;;;;26.77;24.98;;;;;;;;;;4996576;28;20197;-81
2022/03/07 11:54:34;;;;;;;27.63;25.75;;;;;;;;;;4996439;28;20660;-80
2022/03/07 11:57:08;;;;;;;27.92;25.92;;;;;;;;;;4996019;28;20238;-81
2022/03/07 11:59:35;;;;;;;27.58;25.75;;;;;;;;;;4995807;28;20218;-81
2022/03/07 12:02:03;;;;;;;26.33;24.70;;;;;;;;;;4995694;28;20206;-81
2022/03/07 12:04:40;;;;;;;26.58;24.88;;;;;;;;;;4995941;28;20190;-81
2022/03/07 12:07:08;;;;;;;26.58;24.88;;;;;;;;;;4995943;28;20195;-81
2022/03/07 12:09:36;;;;;;;26.70;24.80;;;;;;;;;;4996019;28;20250;-81
2022/03/07 12:12:04;;;;;;;26.17;24.58;;;;;;;;;;4995905;28;20202;-81
2022/03/07 12:14:32;;;;;;;25.73;24.17;;;;;;;;;;4995533;28;20199;-81
2022/03/07 12:17:01;;;;;;;27.15;25.35;;;;;;;;;;4995167;28;20755;-79
2022/03/07 12:19:29;;;;;;;25.83;24.25;;;;;;;;;;4994890;28;20230;-79
2022/03/07 12:21:58;;;;;;;26.63;24.85;;;;;;;;;;4995375;28;20225;-79
2022/03/07 12:24:26;;;;;;;27.33;25.73;;;;;;;;;;4994829;28;20203;-79
2022/03/07 12:26:54;;;;;;;26.30;24.65;;;;;;;;;;4995133;28;20201;-79
2022/03/07 12:29:22;;;;;;;24.77;23.17;;;;;;;;;;4995389;28;20199;-78
2022/03/07 12:31:54;;;;;;;25.05;23.55;;;;;;;;;;4995324;28;20425;-78
2022/03/07 12:34:22;;;;;;;26.15;24.55;;;;;;;;;;4995146;28;20649;-79
2022/03/07 12:37:13;;;;;;;24.65;23.05;;;;;;;;;;4994628;28;20230;-78
2022/03/07 12:39:45;;;;;;;25.10;23.48;;;;;;;;;;4994658;28;20193;-79
2022/03/07 12:42:12;;;;;;;25.40;23.92;;;;;;;;;;4994905;28;20242;-79
2022/03/07 12:44:40;;;;;;;25.85;24.35;;;;;;;;;;4994863;28;20194;-79
2022/03/07 12:47:08;;;;;;;24.67;23.23;;;;;;;;;;4994693;28;20202;-79
2022/03/07 12:49:36;;;;;;;26.17;24.58;;;;;;;;;;4994687;28;20191;-79
2022/03/07 12:52:06;;;;;;;25.52;24.02;;;;;;;;;;4994695;28;20191;-80
2022/03/07 12:54:34;;;;;;;25.77;24.20;;;;;;;;;;4994266;28;20202;-79
2022/03/07 12:57:02;;;;;;;25.98;24.48;;;;;;;;;;4994010;28;20297;-79
2022/03/07 12:59:31;;;;;;;26.77;25.17;;;;;;;;;;4994191;28;20191;-79
2022/03/07 13:01:58;;;;;;;27.47;25.47;;;;;;;;;;4994669;28;20421;-80
2022/03/07 13:04:26;;;;;;;27.52;25.73;;;;;;;;;;4994645;28;20442;-80
2022/03/07 13:06:55;;;;;;;25.87;24.27;;;;;;;;;;4977106;28;20198;-79
2022/03/07 13:09:28;;;;;;;26.85;25.25;;;;;;;;;;4994326;28;20449;-79
2022/03/07 13:11:55;;;;;;;26.55;24.90;;;;;;;;;;4994164;28;20195;-79
2022/03/07 13:14:24;;;;;;;27.73;26.02;;;;;;;;;;4993951;28;20199;-79
2022/03/07 13:16:51;;;;;;;26.98;25.25;;;;;;;;;;4994056;28;20726;-79
2022/03/07 13:19:21;;;;;;;26.17;24.30;;;;;;;;;;4994281;28;20202;-79
2022/03/07 13:21:49;;;;;;;27.30;25.30;;;;;;;;;;4993921;28;20479;-79
2022/03/07 13:24:17;;;;;;;26.90;25.30;;;;;;;;;;4994117;28;20191;-79
2022/03/07 13:26:55;;;;;;;24.67;23.10;;;;;;;;;;4994136;28;20195;-79
2022/03/07 13:29:24;;;;;;;25.85;24.17;;;;;;;;;;4993752;28;20442;-79
2022/03/07 13:31:53;;;;;;;24.50;23.10;;;;;;;;;;4993794;28;20282;-79
2022/03/07 13:34:21;;;;;;;25.33;23.83;;;;;;;;;;4993597;28;20899;-79
2022/03/07 13:36:49;;;;;;;25.53;24.00;;;;;;;;;;4993583;28;20233;-79
2022/03/07 13:39:20;;;;;;;24.83;23.33;;;;;;;;;;4993877;28;20424;-79
2022/03/07 13:41:55;;;;;;;26.73;25.13;;;;;;;;;;4993650;28;20525;-79
2022/03/07 13:44:23;;;;;;;25.33;23.80;;;;;;;;;;4993900;28;20195;-78
2022/03/07 13:46:54;;;;;;;25.00;23.50;;;;;;;;;;4993996;28;20274;-79
2022/03/07 13:49:23;;;;;;;25.47;23.87;;;;;;;;;;4993493;28;20600;-78
2022/03/07 13:51:50;;;;;;;27.17;25.52;;;;;;;;;;4993038;28;20462;-79
2022/03/07 13:54:17;;;;;;;25.20;23.70;;;;;;;;;;4993473;28;20235;-78
2022/03/07 13:56:45;;;;;;;24.10;22.60;;;;;;;;;;4993314;28;20225;-79
2022/03/07 13:59:15;;;;;;;26.52;24.83;;;;;;;;;;4993844;28;20241;-80
2022/03/07 14:01:42;;;;;;;24.90;23.50;;;;;;;;;;4993244;28;20653;-79
2022/03/07 14:04:14;;;;;;;25.63;24.13;;;;;;;;;;4992897;28;20497;-78
2022/03/07 14:06:44;;;;;;;25.27;23.67;;;;;;;;;;4993104;28;20193;-79
2022/03/07 14:09:11;;;;;;;24.83;23.43;;;;;;;;;;4993389;28;20458;-79
2022/03/07 14:11:39;;;;;;;26.07;24.37;;;;;;;;;;4993854;28;20444;-79
2022/03/07 14:14:19;;;;;;;25.17;23.77;;;;;;;;;;4993538;28;20439;-79
2022/03/07 14:16:47;;;;;;;26.10;24.60;;;;;;;;;;4993330;28;20456;-79
2022/03/07 14:19:15;;;;;;;26.17;24.57;;;;;;;;;;4993350;28;20417;-79
2022/03/07 14:21:42;;;;;;;24.88;23.40;;;;;;;;;;4993151;28;20424;-80